Time;durP1;ratioP1;P1;durP2;ratioP2;P2;SDS_P1;SDS_P2;PMS_P1;PMS_P2;Temp;Humidity;BMP_temperature;BMP_pressure;BME280_temperature;BME280_humidity;BME280_pressure;Samples;Min_cycle;Max_cycle;Signal;HPM_P1;HPM_P2
2022/06/09 00:00:27;;;;;;;0.68;0.50;;;;;;;16.25;98.37;95720.44;4975407;28;20203;-74
2022/06/09 00:02:58;;;;;;;1.05;0.68;;;;;;;16.25;98.83;95721.25;4974873;28;20225;-75
2022/06/09 00:05:25;;;;;;;1.23;0.47;;;;;;;16.13;99.23;95722.25;4975401;28;20852;-74
2022/06/09 00:07:54;;;;;;;0.93;0.80;;;;;;;16.27;98.47;95721.09;4975135;28;20714;-74
2022/06/09 00:10:24;;;;;;;2.05;0.80;;;;;;;16.33;97.94;95718.34;4975526;28;20624;-75
2022/06/09 00:12:52;;;;;;;1.08;0.60;;;;;;;16.26;98.29;95716.78;4975030;28;20284;-75
2022/06/09 00:15:19;;;;;;;0.63;0.45;;;;;;;16.05;98.51;95714.56;4975087;28;20203;-75
2022/06/09 00:17:45;;;;;;;1.05;0.60;;;;;;;16.21;97.64;95708.63;4975334;28;20245;-75
2022/06/09 00:20:13;;;;;;;0.93;0.70;;;;;;;16.22;97.78;95715.59;4975170;28;20214;-74
2022/06/09 00:22:40;;;;;;;0.40;0.40;;;;;;;16.10;97.90;95714.69;4974476;28;20207;-75
2022/06/09 00:25:07;;;;;;;1.63;0.70;;;;;;;16.17;97.67;95721.56;4975923;28;20207;-75
2022/06/09 00:27:34;;;;;;;0.70;0.60;;;;;;;16.13;96.64;95725.69;4975138;28;20715;-75
2022/06/09 00:30:03;;;;;;;0.77;0.57;;;;;;;16.23;96.96;95725.16;4974759;28;20284;-75
2022/06/09 00:32:30;;;;;;;1.45;0.75;;;;;;;16.18;97.00;95722.41;4974324;28;20249;-76
2022/06/09 00:34:56;;;;;;;0.80;0.70;;;;;;;15.99;96.93;95728.75;4975484;28;20215;-74
2022/06/09 00:37:23;;;;;;;1.25;0.52;;;;;;;16.22;96.20;95732.34;4975932;28;20219;-74
2022/06/09 00:39:49;;;;;;;0.40;0.40;;;;;;;16.12;96.74;95737.38;4974931;28;20878;-74
2022/06/09 00:42:16;;;;;;;0.68;0.50;;;;;;;16.07;97.08;95741.72;4974200;28;20214;-74
2022/06/09 00:44:44;;;;;;;1.08;0.57;;;;;;;16.21;96.90;95740.53;4972189;28;20637;-74
2022/06/09 00:47:20;;;;;;;0.80;0.70;;;;;;;16.19;97.03;95743.44;4974768;28;20227;-75
2022/06/09 00:49:53;;;;;;;5.10;0.60;;;;;;;16.36;96.12;95743.66;4975201;28;20234;-75
2022/06/09 00:52:22;;;;;;;1.08;0.70;;;;;;;16.34;96.25;95741.22;4973947;28;20205;-75
2022/06/09 00:54:52;;;;;;;1.73;0.60;;;;;;;16.32;95.97;95745.97;4974753;28;20213;-75
2022/06/09 00:57:23;;;;;;;0.63;0.50;;;;;;;16.44;96.03;95741.50;4974551;28;20234;-74
2022/06/09 00:59:53;;;;;;;3.42;0.52;;;;;;;16.34;95.90;95746.53;4974828;28;20249;-75
2022/06/09 01:02:22;;;;;;;0.40;0.40;;;;;;;16.31;96.21;95744.31;4973882;28;20226;-75
2022/06/09 01:04:53;;;;;;;0.70;0.70;;;;;;;16.32;95.86;95743.28;4974571;28;20208;-75
2022/06/09 01:07:24;;;;;;;0.60;0.60;;;;;;;16.11;96.87;95743.72;4974326;28;20219;-75
2022/06/09 01:09:51;;;;;;;1.15;0.60;;;;;;;15.87;98.14;95749.09;4974790;28;20231;-75
2022/06/09 01:12:24;;;;;;;1.42;0.60;;;;;;;16.18;96.92;95746.31;4973618;28;20214;-75
2022/06/09 01:14:50;;;;;;;2.58;0.60;;;;;;;16.13;97.17;95748.81;4974234;28;21027;-75
2022/06/09 01:17:25;;;;;;;1.13;0.73;;;;;;;16.19;96.87;95748.75;4974697;28;20239;-75
2022/06/09 01:20:06;;;;;;;0.90;0.80;;;;;;;16.30;96.36;95753.34;4974840;28;20600;-74
2022/06/09 01:23:12;;;;;;;0.77;0.60;;;;;;;16.37;95.82;95751.41;4973184;28;20203;-75
2022/06/09 01:26:15;;;;;;;1.38;0.80;;;;;;;16.38;95.76;95744.25;4974807;28;20214;-74
2022/06/09 01:29:09;;;;;;;2.90;0.82;;;;;;;16.44;96.71;95741.50;4961359;28;20281;-75
2022/06/09 01:31:44;;;;;;;0.57;0.52;;;;;;;16.52;97.00;95744.66;4974678;28;20304;-75
2022/06/09 01:34:20;;;;;;;0.95;0.55;;;;;;;16.53;97.32;95737.47;4973842;28;20203;-76
2022/06/09 01:36:52;;;;;;;1.60;0.70;;;;;;;16.61;96.34;95745.16;4974076;28;20235;-75
2022/06/09 01:39:28;;;;;;;2.83;0.80;;;;;;;16.59;96.76;95742.72;4974589;28;20731;-74
2022/06/09 01:41:54;;;;;;;0.75;0.65;;;;;;;16.55;96.22;95751.38;4974483;28;20211;-75
2022/06/09 01:44:21;;;;;;;1.35;0.77;;;;;;;16.41;95.42;95746.44;4970685;28;20670;-74
2022/06/09 01:46:49;;;;;;;1.08;0.70;;;;;;;16.37;97.25;95740.78;4974129;28;20235;-74
2022/06/09 01:49:20;;;;;;;0.80;0.68;;;;;;;16.32;96.42;95748.63;4974528;28;20246;-75
2022/06/09 01:51:50;;;;;;;1.55;0.80;;;;;;;16.44;96.07;95746.00;4974582;28;20211;-75
2022/06/09 01:54:21;;;;;;;1.92;0.98;;;;;;;16.41;95.59;95744.63;4976023;28;20207;-74
2022/06/09 01:56:50;;;;;;;2.00;0.80;;;;;;;16.46;95.73;95744.75;4977770;28;20742;-75
2022/06/09 01:59:26;;;;;;;1.80;0.88;;;;;;;16.50;95.42;95740.59;4977925;28;20210;-74
2022/06/09 02:01:58;;;;;;;1.65;0.70;;;;;;;16.54;94.97;95733.78;4977355;28;20214;-75
2022/06/09 02:04:33;;;;;;;1.40;0.93;;;;;;;16.50;94.69;95725.44;4976181;28;20210;-75
2022/06/09 02:07:02;;;;;;;2.45;1.13;;;;;;;16.53;96.54;95729.50;4977203;28;20226;-75
2022/06/09 02:09:32;;;;;;;5.43;0.90;;;;;;;16.47;95.58;95729.59;4976887;28;20230;-75
2022/06/09 02:12:04;;;;;;;1.85;0.90;;;;;;;16.46;95.46;95728.78;4977172;28;20659;-75
2022/06/09 02:14:32;;;;;;;1.17;0.77;;;;;;;16.22;95.13;95726.22;4976508;28;20206;-75
2022/06/09 02:17:00;;;;;;;3.45;0.80;;;;;;;16.28;95.77;95728.00;4976554;28;20241;-75
2022/06/09 02:19:28;;;;;;;1.38;0.80;;;;;;;16.23;96.21;95720.69;4977594;28;20206;-75
2022/06/09 02:21:55;;;;;;;2.15;0.90;;;;;;;16.18;96.21;95731.16;4977193;28;20211;-75
2022/06/09 02:24:21;;;;;;;1.75;0.75;;;;;;;16.10;96.58;95728.00;4975521;28;20203;-75
2022/06/09 02:26:48;;;;;;;3.80;1.02;;;;;;;15.89;97.87;95731.91;4976930;28;20228;-75
2022/06/09 02:29:14;;;;;;;3.47;0.85;;;;;;;15.80;99.24;95732.44;4977317;28;20227;-74
2022/06/09 02:31:42;;;;;;;1.15;0.70;;;;;;;15.73;99.85;95737.00;4976831;28;20264;-75
2022/06/09 02:34:10;;;;;;;1.90;0.82;;;;;;;15.90;100.00;95738.06;4976182;28;20203;-75
2022/06/09 02:36:37;;;;;;;3.05;1.10;;;;;;;16.04;99.76;95729.69;4976983;28;20212;-75
2022/06/09 02:39:05;;;;;;;3.63;0.80;;;;;;;15.88;99.74;95743.59;4977069;28;20211;-75
2022/06/09 02:41:32;;;;;;;2.83;1.10;;;;;;;15.84;100.00;95739.72;4976608;28;20576;-75
2022/06/09 02:43:58;;;;;;;0.80;0.73;;;;;;;15.84;100.00;95739.72;4972038;28;20207;-75
2022/06/09 02:46:25;;;;;;;1.73;0.77;;;;;;;15.99;100.00;95742.03;4976722;28;20204;-75
2022/06/09 02:48:52;;;;;;;2.97;0.73;;;;;;;15.97;99.75;95731.63;4976769;28;20210;-76
2022/06/09 02:51:26;;;;;;;1.15;0.90;;;;;;;16.09;98.63;95729.84;4977154;28;20231;-75
2022/06/09 02:53:53;;;;;;;2.03;1.08;;;;;;;16.01;99.42;95735.47;4975669;28;20222;-75
2022/06/09 02:56:20;;;;;;;1.88;0.90;;;;;;;16.01;99.49;95734.63;4976288;28;20203;-75
2022/06/09 02:58:46;;;;;;;1.13;0.82;;;;;;;15.88;99.23;95729.47;4976376;28;20242;-74
2022/06/09 03:01:13;;;;;;;5.15;0.90;;;;;;;15.91;99.38;95737.00;4977319;28;20210;-75
2022/06/09 03:03:39;;;;;;;1.83;0.90;;;;;;;15.88;99.39;95740.09;4975775;28;20211;-75
2022/06/09 03:06:06;;;;;;;3.40;1.00;;;;;;;15.77;100.00;95748.81;4975623;28;20210;-75
2022/06/09 03:08:34;;;;;;;1.75;0.80;;;;;;;15.76;100.00;95749.84;4976550;28;20246;-75
2022/06/09 03:11:01;;;;;;;1.25;1.00;;;;;;;15.71;100.00;95752.34;4976403;28;20227;-75
2022/06/09 03:13:27;;;;;;;1.00;0.75;;;;;;;15.68;100.00;95750.16;4975547;28;20210;-74
2022/06/09 03:15:54;;;;;;;2.38;1.00;;;;;;;15.68;100.00;95750.16;4976263;28;20226;-75
2022/06/09 03:18:20;;;;;;;1.25;0.90;;;;;;;15.73;100.00;95755.59;4976374;28;20223;-75
2022/06/09 03:20:48;;;;;;;4.03;1.55;;;;;;;15.76;100.00;95751.69;4976402;28;20222;-75
2022/06/09 03:23:15;;;;;;;2.03;1.00;;;;;;;15.63;100.00;95752.66;4975418;28;20203;-74
2022/06/09 03:25:43;;;;;;;3.28;1.38;;;;;;;15.61;100.00;95749.38;4976302;28;20665;-74
2022/06/09 03:28:10;;;;;;;1.10;0.82;;;;;;;15.71;100.00;95754.22;4975985;28;20223;-75
2022/06/09 03:30:37;;;;;;;3.47;1.00;;;;;;;15.59;100.00;95761.25;4976506;28;20223;-75
2022/06/09 03:33:04;;;;;;;3.63;1.10;;;;;;;15.67;100.00;95769.75;4975319;28;20222;-75
2022/06/09 03:35:31;;;;;;;1.48;1.00;;;;;;;15.60;100.00;95765.53;4975808;28;20322;-75
2022/06/09 03:37:58;;;;;;;1.52;0.82;;;;;;;15.57;100.00;95766.00;4975509;28;20617;-75
2022/06/09 03:40:27;;;;;;;1.00;0.70;;;;;;;15.53;100.00;95776.22;4976399;28;20579;-75
2022/06/09 03:42:55;;;;;;;1.10;0.85;;;;;;;15.54;100.00;95780.50;4975125;28;20289;-75
2022/06/09 03:45:22;;;;;;;2.35;0.60;;;;;;;15.55;100.00;95786.63;4971381;28;20676;-74
2022/06/09 03:47:49;;;;;;;4.90;0.88;;;;;;;15.60;100.00;95784.94;4974918;28;20681;-75
2022/06/09 03:50:18;;;;;;;3.92;2.42;;;;;;;15.62;100.00;95782.09;4975431;28;21169;-74
2022/06/09 03:52:44;;;;;;;1.65;1.10;;;;;;;15.48;100.00;95783.22;4974467;28;20242;-74
2022/06/09 03:55:11;;;;;;;4.40;1.00;;;;;;;15.50;100.00;95789.13;4975510;28;20207;-74
2022/06/09 03:57:37;;;;;;;3.20;0.90;;;;;;;15.53;100.00;95789.50;4975020;28;20232;-75
2022/06/09 04:00:09;;;;;;;2.33;1.02;;;;;;;15.61;100.00;95788.41;4975378;28;20203;-75
2022/06/09 04:02:36;;;;;;;2.47;1.20;;;;;;;15.52;100.00;95797.69;4974613;28;20488;-75
2022/06/09 04:05:04;;;;;;;3.55;0.95;;;;;;;15.55;100.00;95797.25;4974734;28;20888;-75
2022/06/09 04:07:30;;;;;;;1.40;1.10;;;;;;;15.54;100.00;95795.63;4974877;28;20226;-75
2022/06/09 04:09:57;;;;;;;1.75;1.00;;;;;;;15.51;100.00;95801.38;4974921;28;20235;-75
2022/06/09 04:12:24;;;;;;;0.73;0.63;;;;;;;15.55;100.00;95800.72;4974894;28;20214;-74
2022/06/09 04:14:51;;;;;;;1.30;0.98;;;;;;;15.68;100.00;95802.44;4975058;28;20213;-74
2022/06/09 04:17:19;;;;;;;0.90;0.80;;;;;;;15.67;100.00;95806.13;4973704;28;20243;-74
2022/06/09 04:19:46;;;;;;;2.30;0.80;;;;;;;15.46;100.00;95809.97;4974724;28;20274;-75
2022/06/09 04:22:12;;;;;;;1.98;0.60;;;;;;;15.43;100.00;95807.75;4974304;28;20826;-75
2022/06/09 04:24:39;;;;;;;1.45;0.68;;;;;;;15.58;100.00;95807.44;4974446;28;20211;-75
2022/06/09 04:27:06;;;;;;;1.27;0.77;;;;;;;15.57;99.46;95811.13;4974730;28;20242;-75
2022/06/09 04:29:32;;;;;;;0.75;0.40;;;;;;;15.68;98.84;95813.06;4974681;28;20682;-74
2022/06/09 04:31:59;;;;;;;2.95;0.60;;;;;;;15.57;98.79;95811.94;4974189;28;20211;-75
2022/06/09 04:34:27;;;;;;;0.57;0.57;;;;;;;15.53;98.63;95820.53;4973519;28;20804;-75
2022/06/09 04:36:53;;;;;;;2.30;0.40;;;;;;;15.26;98.42;95825.25;4974599;28;20246;-74
2022/06/09 04:39:20;;;;;;;0.55;0.50;;;;;;;15.37;97.81;95829.06;4974428;28;20196;-74
2022/06/09 04:41:46;;;;;;;0.55;0.55;;;;;;;15.38;97.76;95828.03;4974627;28;20211;-74
2022/06/09 04:44:13;;;;;;;0.98;0.50;;;;;;;15.39;97.50;95827.81;4970385;28;20203;-75
2022/06/09 04:46:39;;;;;;;0.77;0.60;;;;;;;15.38;97.56;95836.00;4974117;28;20211;-74
2022/06/09 04:49:06;;;;;;;0.77;0.60;;;;;;;15.44;97.27;95838.59;4973699;28;20663;-75
2022/06/09 04:51:34;;;;;;;3.58;0.65;;;;;;;15.56;97.55;95841.38;4974445;28;20574;-75
2022/06/09 04:54:00;;;;;;;2.75;0.60;;;;;;;15.40;97.84;95847.19;4973170;28;20211;-75
2022/06/09 04:56:27;;;;;;;0.93;0.63;;;;;;;15.29;96.99;95854.03;4974162;28;20207;-75
2022/06/09 04:58:54;;;;;;;0.82;0.70;;;;;;;15.27;98.28;95858.75;4974499;28;20199;-74
2022/06/09 05:01:23;;;;;;;0.90;0.40;;;;;;;15.32;97.61;95853.63;4974264;28;20210;-72
2022/06/09 05:03:50;;;;;;;1.70;0.80;;;;;;;15.24;97.97;95853.84;4973939;28;20207;-72
2022/06/09 05:06:17;;;;;;;1.30;0.80;;;;;;;15.11;98.29;95857.59;4974781;28;20210;-73
2022/06/09 05:08:45;;;;;;;0.93;0.65;;;;;;;15.28;98.25;95860.34;4974570;28;20237;-73
2022/06/09 05:11:11;;;;;;;1.48;0.95;;;;;;;15.10;98.02;95855.97;4974332;28;20223;-72
2022/06/09 05:13:38;;;;;;;2.10;0.85;;;;;;;15.14;98.18;95862.50;4974311;28;20216;-73
2022/06/09 05:16:06;;;;;;;0.85;0.70;;;;;;;15.29;97.74;95863.84;4974429;28;20226;-72
2022/06/09 05:18:33;;;;;;;3.30;0.90;;;;;;;15.28;98.29;95867.53;4974733;28;20657;-72
2022/06/09 05:21:01;;;;;;;2.67;0.93;;;;;;;15.32;98.57;95871.38;4974516;28;20583;-73
2022/06/09 05:23:29;;;;;;;1.42;0.80;;;;;;;15.34;99.99;95877.28;4973407;28;20207;-73
2022/06/09 05:25:59;;;;;;;1.05;1.05;;;;;;;15.31;100.00;95880.34;4974513;28;20215;-73
2022/06/09 05:28:28;;;;;;;1.13;0.88;;;;;;;15.42;100.00;95898.25;4975942;28;20230;-73
2022/06/09 05:30:55;;;;;;;2.28;1.05;;;;;;;15.45;100.00;95890.69;4978147;28;20239;-73
2022/06/09 05:33:22;;;;;;;1.90;1.25;;;;;;;15.43;99.30;95892.72;4976705;28;20210;-73
2022/06/09 05:35:49;;;;;;;1.67;1.00;;;;;;;15.52;100.00;95899.41;4977356;28;20684;-73
2022/06/09 05:46:31;;;;;;;2.47;1.27;;;;;;;15.39;100.00;95910.13;4977277;28;20218;-72
2022/06/09 05:48:58;;;;;;;6.50;1.17;;;;;;;15.46;100.00;95907.44;4977516;28;20243;-73
2022/06/09 05:51:24;;;;;;;3.80;1.60;;;;;;;15.50;100.00;95912.09;4977568;28;20230;-73
2022/06/09 05:53:51;;;;;;;1.85;1.25;;;;;;;15.46;99.53;95920.69;4977228;28;20301;-73
2022/06/09 05:56:20;;;;;;;3.03;1.38;;;;;;;15.48;100.00;95921.31;4977280;28;20242;-73
2022/06/09 05:58:47;;;;;;;3.83;1.83;;;;;;;15.47;100.00;95925.00;4977174;28;20223;-73
2022/06/09 06:01:14;;;;;;;2.65;1.40;;;;;;;15.46;100.00;95929.47;4977990;28;20203;-73
2022/06/09 06:03:42;;;;;;;5.63;1.38;;;;;;;15.55;99.78;95930.84;4976230;28;20214;-73
2022/06/09 06:08:53;;;;;;;3.15;1.30;;;;;;;15.58;98.34;95927.78;4977754;28;20218;-73
2022/06/09 06:11:21;;;;;;;2.60;1.85;;;;;;;15.68;99.05;95936.09;4977810;28;20227;-73
2022/06/09 06:13:48;;;;;;;2.40;1.20;;;;;;;15.74;98.06;95945.03;4976075;28;20257;-73
2022/06/09 06:16:15;;;;;;;2.88;1.23;;;;;;;15.71;98.89;95945.47;4976608;28;21066;-73
2022/06/09 06:18:42;;;;;;;2.08;1.27;;;;;;;15.74;98.46;95942.38;4977571;28;20641;-73
2022/06/09 06:21:09;;;;;;;1.33;1.17;;;;;;;15.74;98.24;95945.03;4977078;28;20208;-72
2022/06/09 06:23:36;;;;;;;6.18;1.50;;;;;;;15.91;97.01;95953.06;4973987;28;20231;-73
2022/06/09 06:26:03;;;;;;;2.28;1.45;;;;;;;15.94;97.34;95955.28;4974310;28;20207;-72
2022/06/09 06:28:31;;;;;;;2.17;1.40;;;;;;;16.30;95.96;95952.75;4975234;28;20219;-73
2022/06/09 06:30:58;;;;;;;2.20;1.20;;;;;;;16.21;96.86;95943.41;4975202;28;20691;-73
2022/06/09 06:33:25;;;;;;;3.97;1.30;;;;;;;16.23;95.34;95949.31;4972319;28;20292;-73
2022/06/09 06:35:51;;;;;;;3.67;1.70;;;;;;;16.28;94.80;95956.66;4976229;28;20585;-73
2022/06/09 06:38:18;;;;;;;6.80;1.85;;;;;;;16.44;93.97;95954.25;4975696;28;20234;-72
2022/06/09 06:40:45;;;;;;;4.47;1.30;;;;;;;16.48;93.12;95957.31;4976558;28;20211;-72
2022/06/09 06:43:11;;;;;;;2.28;1.30;;;;;;;16.46;90.18;95956.69;4975247;28;20203;-73
2022/06/09 06:45:40;;;;;;;4.75;1.48;;;;;;;16.60;91.97;95967.00;4975781;28;20394;-73
2022/06/09 06:48:07;;;;;;;3.20;1.40;;;;;;;16.48;91.98;95959.97;4976261;28;20235;-72
2022/06/09 06:50:34;;;;;;;1.65;1.15;;;;;;;16.49;91.38;95962.41;4976289;28;20386;-73
2022/06/09 06:53:01;;;;;;;2.95;1.35;;;;;;;16.62;91.23;95973.72;4975171;28;20212;-73
2022/06/09 06:55:29;;;;;;;4.75;1.38;;;;;;;16.64;90.37;95960.22;4975963;28;20625;-73
2022/06/09 06:57:55;;;;;;;2.22;1.30;;;;;;;16.56;90.24;95968.47;4976013;28;20259;-73
2022/06/09 07:00:24;;;;;;;3.22;1.30;;;;;;;16.56;90.55;95969.28;4975350;28;20337;-73
2022/06/09 07:02:53;;;;;;;4.20;1.40;;;;;;;16.48;90.00;95969.56;4974981;28;20204;-72
2022/06/09 07:05:21;;;;;;;6.70;1.60;;;;;;;16.33;90.38;95973.63;4976002;28;20207;-72
2022/06/09 07:07:49;;;;;;;3.80;1.58;;;;;;;16.19;90.69;95976.56;4975619;28;20737;-72
2022/06/09 07:10:16;;;;;;;3.80;1.35;;;;;;;16.29;91.44;95980.38;4976140;28;20332;-73
2022/06/09 07:12:43;;;;;;;4.05;1.33;;;;;;;16.27;90.78;95984.31;4974830;28;20246;-73
2022/06/09 07:15:12;;;;;;;4.43;1.20;;;;;;;16.25;87.93;95987.13;4975649;28;20203;-72
2022/06/09 07:17:38;;;;;;;2.05;0.93;;;;;;;16.41;87.15;95983.97;4975563;28;20246;-73
2022/06/09 07:20:08;;;;;;;1.83;1.08;;;;;;;16.54;86.15;95989.16;4976789;28;20234;-72
2022/06/09 07:22:35;;;;;;;3.30;1.00;;;;;;;16.56;85.98;95992.44;4974894;28;20210;-73
2022/06/09 07:25:01;;;;;;;1.63;0.80;;;;;;;16.60;83.08;95994.41;4975393;28;20211;-73
2022/06/09 07:27:28;;;;;;;2.38;0.90;;;;;;;16.50;82.14;95991.44;4975624;28;20219;-72
2022/06/09 07:29:54;;;;;;;2.17;1.00;;;;;;;16.91;83.45;95991.63;4975655;28;20207;-73
2022/06/09 07:32:22;;;;;;;1.33;0.85;;;;;;;16.72;82.31;95995.31;4974088;28;20223;-72
2022/06/09 07:34:49;;;;;;;4.30;1.00;;;;;;;16.71;81.05;95999.03;4975404;28;20278;-72
2022/06/09 07:37:17;;;;;;;4.32;0.95;;;;;;;16.90;81.39;95997.19;4975697;28;20227;-72
2022/06/09 07:39:44;;;;;;;1.42;0.70;;;;;;;16.80;79.11;95996.88;4974532;28;20565;-73
2022/06/09 07:42:10;;;;;;;2.67;0.70;;;;;;;16.63;79.17;95995.81;4975214;28;20203;-73
2022/06/09 07:44:37;;;;;;;2.47;0.85;;;;;;;16.69;78.38;95998.41;4975033;28;20578;-73
2022/06/09 07:47:06;;;;;;;2.50;0.70;;;;;;;16.71;77.67;95992.88;4974591;28;20238;-73
2022/06/09 07:49:33;;;;;;;3.20;1.10;;;;;;;16.76;78.11;95991.19;4975420;28;20231;-72
2022/06/09 07:52:00;;;;;;;3.17;0.60;;;;;;;16.75;78.07;95994.06;4974330;28;20417;-73
2022/06/09 07:54:28;;;;;;;3.60;0.98;;;;;;;16.82;78.95;95997.47;4973947;28;20572;-73
2022/06/09 07:56:54;;;;;;;2.03;0.82;;;;;;;16.69;76.91;95993.09;4975379;28;20230;-73
2022/06/09 07:59:21;;;;;;;4.13;1.10;;;;;;;16.87;78.08;96002.94;4974887;28;20239;-72
2022/06/09 08:01:47;;;;;;;2.42;0.98;;;;;;;16.89;77.51;96001.69;4974659;28;20367;-72
2022/06/09 08:04:15;;;;;;;0.70;0.50;;;;;;;17.09;76.31;96002.28;4974401;28;20215;-73
2022/06/09 08:06:42;;;;;;;2.35;0.70;;;;;;;17.30;76.19;96005.34;4974578;28;20252;-73
2022/06/09 08:09:09;;;;;;;3.47;1.00;;;;;;;17.28;76.23;96002.06;4975275;28;20203;-73
2022/06/09 08:11:38;;;;;;;4.10;0.95;;;;;;;17.12;75.09;96005.31;4974769;28;20281;-72
2022/06/09 08:14:05;;;;;;;0.85;0.70;;;;;;;17.13;76.47;96001.63;4973524;28;20207;-73
2022/06/09 08:16:33;;;;;;;2.97;0.80;;;;;;;17.30;77.27;96005.34;4974855;28;20215;-73
2022/06/09 08:19:00;;;;;;;1.20;0.70;;;;;;;17.26;75.34;96004.16;4975167;28;20706;-73
2022/06/09 08:21:28;;;;;;;4.38;0.70;;;;;;;17.57;76.03;96009.28;4974134;28;20619;-73
2022/06/09 08:23:54;;;;;;;1.20;0.60;;;;;;;17.51;74.05;96020.03;4973595;28;20545;-73
2022/06/09 08:26:21;;;;;;;2.65;0.70;;;;;;;17.52;73.49;96017.13;4975591;28;20203;-73
2022/06/09 08:28:49;;;;;;;1.15;0.75;;;;;;;17.70;71.65;96022.44;4974551;28;20223;-73
2022/06/09 08:31:15;;;;;;;2.28;0.50;;;;;;;17.42;69.67;96016.84;4974180;28;20238;-73
2022/06/09 08:33:42;;;;;;;3.08;0.75;;;;;;;17.66;70.70;96015.94;4974102;28;20207;-73
2022/06/09 08:36:09;;;;;;;2.92;0.77;;;;;;;17.86;69.55;96016.47;4975097;28;20214;-73
2022/06/09 08:38:36;;;;;;;2.38;0.93;;;;;;;17.95;68.50;96023.13;4974244;28;20231;-72
2022/06/09 08:41:17;;;;;;;0.85;0.57;;;;;;;18.11;68.38;96025.91;4974152;28;20607;-73
2022/06/09 08:43:54;;;;;;;0.60;0.45;;;;;;;17.82;69.31;96023.31;4973800;28;20218;-73
2022/06/09 08:46:27;;;;;;;1.80;0.60;;;;;;;17.87;70.02;96028.75;4974240;28;20445;-73
2022/06/09 08:48:56;;;;;;;1.40;0.70;;;;;;;18.03;69.83;96033.44;4974029;28;20936;-73
2022/06/09 08:51:39;;;;;;;1.52;0.73;;;;;;;18.28;69.08;96021.59;4974263;28;20227;-73
2022/06/09 08:54:13;;;;;;;0.52;0.50;;;;;;;18.28;69.80;96031.44;4973649;28;20207;-73
2022/06/09 08:56:39;;;;;;;1.27;0.55;;;;;;;18.07;69.16;96029.28;4974259;28;20204;-72
2022/06/09 08:59:14;;;;;;;0.47;0.47;;;;;;;18.15;67.11;96045.78;4974821;28;20207;-72
2022/06/09 09:01:44;;;;;;;1.85;0.60;;;;;;;18.46;66.50;96034.84;4973773;28;20454;-73
2022/06/09 09:04:20;;;;;;;2.78;0.65;;;;;;;19.00;67.15;96027.31;4972269;28;20222;-73
2022/06/09 09:06:51;;;;;;;0.77;0.60;;;;;;;19.08;65.34;96035.00;4974359;28;20230;-73
2022/06/09 09:09:22;;;;;;;0.52;0.50;;;;;;;18.97;64.86;96033.13;4973998;28;20222;-73
2022/06/09 09:12:01;;;;;;;1.35;0.52;;;;;;;18.80;66.32;96050.06;4974142;28;21107;-72
2022/06/09 09:14:30;;;;;;;1.48;0.60;;;;;;;18.44;70.29;96047.59;4973484;28;20280;-73
2022/06/09 09:17:03;;;;;;;1.67;0.90;;;;;;;18.25;71.24;96056.72;4974186;28;20721;-73
2022/06/09 09:19:42;;;;;;;4.13;0.68;;;;;;;18.35;71.72;96056.97;4973710;28;20288;-73
2022/06/09 09:22:18;;;;;;;1.80;0.80;;;;;;;18.28;71.86;96064.28;4973452;28;20211;-73
2022/06/09 09:24:59;;;;;;;2.13;0.80;;;;;;;18.16;69.28;96057.25;4973782;28;20238;-73
2022/06/09 09:27:34;;;;;;;1.15;0.70;;;;;;;18.25;68.54;96058.59;4973655;28;20249;-72
2022/06/09 09:30:13;;;;;;;5.07;0.60;;;;;;;18.31;67.55;96055.81;4973775;28;20374;-73
2022/06/09 09:32:42;;;;;;;2.20;0.60;;;;;;;18.33;66.95;96057.22;4972650;28;20772;-73
2022/06/09 09:35:14;;;;;;;1.65;0.60;;;;;;;18.42;66.41;96057.72;4973336;28;20691;-73
2022/06/09 09:37:44;;;;;;;1.42;0.68;;;;;;;18.46;65.99;96054.34;4974004;28;20612;-73
2022/06/09 09:40:19;;;;;;;1.80;0.77;;;;;;;18.66;68.50;96064.69;4974011;28;20212;-73
2022/06/09 09:42:47;;;;;;;2.20;1.00;;;;;;;18.40;68.51;96065.91;4972728;28;20557;-73
2022/06/09 09:45:18;;;;;;;1.38;0.68;;;;;;;18.38;70.08;96065.34;4973614;28;20206;-74
2022/06/09 09:47:50;;;;;;;1.40;0.73;;;;;;;17.99;70.60;96075.75;4974202;28;20670;-73
2022/06/09 09:50:27;;;;;;;1.65;0.70;;;;;;;18.06;69.57;96081.00;4972991;28;20719;-73
2022/06/09 09:53:04;;;;;;;1.45;0.90;;;;;;;18.33;71.22;96087.59;4972224;28;20250;-73
2022/06/09 09:55:37;;;;;;;1.63;0.70;;;;;;;18.77;70.15;96072.72;4974634;28;20203;-73
2022/06/09 09:58:38;;;;;;;2.03;0.70;;;;;;;19.07;68.17;96071.59;4973258;28;20234;-73
2022/06/09 10:01:28;;;;;;;4.63;0.82;;;;;;;19.19;69.06;96074.25;4916324;28;20259;-74
2022/06/09 10:09:47;;;;;;;3.17;0.70;;;;;;;18.38;68.06;96094.69;4931638;28;20207;-72
2022/06/09 10:12:18;;;;;;;1.95;1.08;;;;;;;18.01;70.98;96099.50;4931175;28;20476;-73
2022/06/09 10:14:49;;;;;;;2.45;0.82;;;;;;;17.70;71.95;96105.06;4948567;28;20203;-72
2022/06/09 10:17:26;;;;;;;2.15;1.00;;;;;;;17.75;72.40;96094.53;4976364;28;20231;-73
2022/06/09 10:19:59;;;;;;;1.88;0.85;;;;;;;17.90;73.19;96100.28;4976823;28;20679;-73
2022/06/09 10:22:28;;;;;;;2.13;0.70;;;;;;;17.80;72.94;96098.16;4975297;28;20203;-73
2022/06/09 10:24:57;;;;;;;3.15;0.90;;;;;;;18.14;70.82;96094.00;4976192;28;20389;-73
2022/06/09 10:27:29;;;;;;;3.17;0.80;;;;;;;17.86;70.52;96093.78;4976525;28;20640;-73
2022/06/09 10:30:04;;;;;;;2.75;1.05;;;;;;;18.20;70.30;96090.47;4976435;28;20210;-73
2022/06/09 10:32:44;;;;;;;2.05;1.00;;;;;;;18.49;69.20;96090.44;4975320;28;20230;-73
2022/06/09 10:35:17;;;;;;;4.53;1.00;;;;;;;18.87;68.12;96080.97;4976656;28;20246;-74
2022/06/09 10:37:47;;;;;;;2.30;0.70;;;;;;;19.07;68.44;96079.59;4976230;28;20257;-74
2022/06/09 10:40:18;;;;;;;0.90;0.50;;;;;;;19.04;64.17;96085.38;4976345;28;20204;-72
2022/06/09 10:42:53;;;;;;;5.18;0.85;;;;;;;19.16;60.71;96086.22;4975303;28;20214;-72
2022/06/09 10:45:26;;;;;;;1.33;0.68;;;;;;;19.60;58.98;96083.72;4976281;28;20209;-73
2022/06/09 10:56:33;;;;;;;2.53;0.70;;;;;;;20.26;60.57;96079.47;4975608;28;20590;-74
2022/06/09 10:59:06;;;;;;;2.38;0.60;;;;;;;20.43;58.56;96084.81;4976466;28;20211;-72
2022/06/09 11:01:34;;;;;;;2.53;0.88;;;;;;;20.47;61.09;96084.09;4976089;28;20203;-73
2022/06/09 11:04:06;;;;;;;2.67;0.82;;;;;;;20.46;56.96;96085.16;4974554;28;20250;-73
2022/06/09 11:06:53;;;;;;;3.90;0.80;;;;;;;20.57;56.94;96080.78;4976315;28;20663;-74
2022/06/09 11:09:27;;;;;;;2.25;0.60;;;;;;;19.92;58.77;96092.97;4976058;28;20206;-72
2022/06/09 11:12:08;;;;;;;2.72;0.50;;;;;;;20.13;57.85;96084.28;4975800;28;20363;-72
2022/06/09 11:14:59;;;;;;;3.10;0.75;;;;;;;20.97;55.48;96072.38;4975038;28;20195;-73
2022/06/09 11:17:49;;;;;;;2.17;0.68;;;;;;;21.06;54.79;96080.81;4975279;28;20424;-72
2022/06/09 11:20:25;;;;;;;3.45;0.55;;;;;;;21.29;54.92;96080.63;4976025;28;20215;-73
2022/06/09 11:23:03;;;;;;;0.68;0.50;;;;;;;20.69;55.94;96090.38;4974393;28;20214;-72
2022/06/09 11:25:42;;;;;;;1.88;0.80;;;;;;;20.84;56.86;96080.75;4974486;28;20203;-73
2022/06/09 11:28:25;;;;;;;2.95;0.50;;;;;;;20.76;55.93;96090.25;4975484;28;20234;-73
2022/06/09 11:31:08;;;;;;;2.58;0.60;;;;;;;20.42;58.41;96099.28;4975448;28;20207;-73
2022/06/09 11:33:47;;;;;;;1.88;0.70;;;;;;;20.70;59.42;96093.88;4971801;28;20226;-73
2022/06/09 11:36:23;;;;;;;3.13;0.73;;;;;;;20.42;57.60;96093.91;4975397;28;20223;-74
2022/06/09 11:38:55;;;;;;;4.20;0.75;;;;;;;20.33;59.02;96092.69;4975216;28;20246;-72
2022/06/09 11:41:30;;;;;;;1.95;0.65;;;;;;;20.13;58.66;96094.97;4975643;28;20643;-73
2022/06/09 11:44:09;;;;;;;4.00;0.80;;;;;;;20.20;59.15;96096.47;4974886;28;20523;-72
2022/06/09 11:46:38;;;;;;;1.30;0.70;;;;;;;20.04;60.36;96096.41;4975409;28;20207;-73
2022/06/09 11:49:07;;;;;;;0.98;0.70;;;;;;;19.96;59.71;96096.78;4975530;28;20230;-73
2022/06/09 11:51:36;;;;;;;0.65;0.60;;;;;;;20.23;57.20;96106.66;4975827;28;20204;-73
2022/06/09 11:54:06;;;;;;;1.23;0.57;;;;;;;20.88;55.17;96100.63;4974143;28;20602;-74
2022/06/09 11:56:39;;;;;;;0.85;0.40;;;;;;;21.92;52.99;96098.69;4975159;28;20206;-74
2022/06/09 11:59:21;;;;;;;1.95;0.50;;;;;;;21.76;50.41;96098.72;4975145;28;20262;-74
2022/06/09 12:02:16;;;;;;;2.15;0.50;;;;;;;22.06;52.00;96098.03;4974705;28;20583;-74
2022/06/09 12:05:01;;;;;;;1.27;0.55;;;;;;;22.86;50.39;96096.19;4975217;28;20211;-74
2022/06/09 12:07:38;;;;;;;0.90;0.50;;;;;;;22.69;50.39;96106.25;4974900;28;20230;-73
2022/06/09 12:10:25;;;;;;;1.98;0.93;;;;;;;22.66;49.46;96104.06;4974690;28;20203;-73